sensor_id;sensor_type;location;lat;lon;timestamp;temperature;humidity
64209;DHT22;50527;52.414;13.226;2023-05-27T00:02:16;10.60;88.60
64209;DHT22;50527;52.414;13.226;2023-05-27T00:04:42;10.60;88.70
64209;DHT22;50527;52.414;13.226;2023-05-27T00:07:07;10.60;89.10
64209;DHT22;50527;52.414;13.226;2023-05-27T00:09:33;10.60;89.50
64209;DHT22;50527;52.414;13.226;2023-05-27T00:11:58;10.50;89.60
64209;DHT22;50527;52.414;13.226;2023-05-27T00:14:24;10.50;89.90
64209;DHT22;50527;52.414;13.226;2023-05-27T00:16:49;10.40;90.00
64209;DHT22;50527;52.414;13.226;2023-05-27T00:19:16;10.30;88.90
64209;DHT22;50527;52.414;13.226;2023-05-27T00:21:42;10.20;90.20
64209;DHT22;50527;52.414;13.226;2023-05-27T00:24:08;10.10;90.80
64209;DHT22;50527;52.414;13.226;2023-05-27T00:26:34;10.10;91.00
64209;DHT22;50527;52.414;13.226;2023-05-27T00:28:59;10.10;91.10
64209;DHT22;50527;52.414;13.226;2023-05-27T00:31:25;10.10;91.00
64209;DHT22;50527;52.414;13.226;2023-05-27T00:33:50;10.00;91.10
64209;DHT22;50527;52.414;13.226;2023-05-27T00:36:16;10.00;91.40
64209;DHT22;50527;52.414;13.226;2023-05-27T00:38:42;10.00;91.50
64209;DHT22;50527;52.414;13.226;2023-05-27T00:41:10;10.00;91.40
64209;DHT22;50527;52.414;13.226;2023-05-27T00:43:36;9.90;91.40
64209;DHT22;50527;52.414;13.226;2023-05-27T00:46:02;9.90;91.80
64209;DHT22;50527;52.414;13.226;2023-05-27T00:48:28;9.90;91.70
64209;DHT22;50527;52.414;13.226;2023-05-27T00:50:54;9.80;91.80
64209;DHT22;50527;52.414;13.226;2023-05-27T00:53:20;9.90;91.70
64209;DHT22;50527;52.414;13.226;2023-05-27T00:55:46;9.90;91.70
64209;DHT22;50527;52.414;13.226;2023-05-27T00:58:12;9.90;91.70
64209;DHT22;50527;52.414;13.226;2023-05-27T01:00:38;9.90;91.70
64209;DHT22;50527;52.414;13.226;2023-05-27T01:03:05;9.90;91.20
64209;DHT22;50527;52.414;13.226;2023-05-27T01:05:32;9.80;91.40
64209;DHT22;50527;52.414;13.226;2023-05-27T01:08:07;9.80;91.40
64209;DHT22;50527;52.414;13.226;2023-05-27T01:10:43;9.80;91.30
64209;DHT22;50527;52.414;13.226;2023-05-27T01:13:33;9.70;91.50
64209;DHT22;50527;52.414;13.226;2023-05-27T01:16:02;9.60;91.70
64209;DHT22;50527;52.414;13.226;2023-05-27T01:18:31;9.60;92.10
64209;DHT22;50527;52.414;13.226;2023-05-27T01:21:10;9.50;92.40
64209;DHT22;50527;52.414;13.226;2023-05-27T01:23:36;9.50;92.30
64209;DHT22;50527;52.414;13.226;2023-05-27T01:26:07;9.40;92.70
64209;DHT22;50527;52.414;13.226;2023-05-27T01:28:32;9.40;93.00
64209;DHT22;50527;52.414;13.226;2023-05-27T01:31:08;9.30;92.90
64209;DHT22;50527;52.414;13.226;2023-05-27T01:33:37;9.30;92.90
64209;DHT22;50527;52.414;13.226;2023-05-27T01:36:09;9.30;93.20
64209;DHT22;50527;52.414;13.226;2023-05-27T01:38:36;9.30;93.10
64209;DHT22;50527;52.414;13.226;2023-05-27T01:41:05;9.20;93.10
64209;DHT22;50527;52.414;13.226;2023-05-27T01:43:32;9.20;93.50
64209;DHT22;50527;52.414;13.226;2023-05-27T01:45:58;9.10;93.40
64209;DHT22;50527;52.414;13.226;2023-05-27T01:48:24;9.10;93.30
64209;DHT22;50527;52.414;13.226;2023-05-27T01:50:49;9.10;93.90
64209;DHT22;50527;52.414;13.226;2023-05-27T01:53:15;9.10;93.30
64209;DHT22;50527;52.414;13.226;2023-05-27T01:55:40;8.90;93.60
64209;DHT22;50527;52.414;13.226;2023-05-27T01:58:06;8.90;94.40
64209;DHT22;50527;52.414;13.226;2023-05-27T02:00:31;8.90;93.70
64209;DHT22;50527;52.414;13.226;2023-05-27T02:02:57;8.90;94.10
64209;DHT22;50527;52.414;13.226;2023-05-27T02:05:23;8.90;94.20
64209;DHT22;50527;52.414;13.226;2023-05-27T02:07:48;8.90;94.10
64209;DHT22;50527;52.414;13.226;2023-05-27T02:10:13;8.90;93.50
64209;DHT22;50527;52.414;13.226;2023-05-27T02:12:39;8.90;94.00
64209;DHT22;50527;52.414;13.226;2023-05-27T02:15:05;8.90;94.10
64209;DHT22;50527;52.414;13.226;2023-05-27T02:17:30;8.80;93.50
64209;DHT22;50527;52.414;13.226;2023-05-27T02:19:56;8.70;94.20
64209;DHT22;50527;52.414;13.226;2023-05-27T02:22:22;8.80;94.30
64209;DHT22;50527;52.414;13.226;2023-05-27T02:24:47;8.70;94.30
64209;DHT22;50527;52.414;13.226;2023-05-27T02:27:13;8.70;94.10
64209;DHT22;50527;52.414;13.226;2023-05-27T02:29:38;8.70;94.40
64209;DHT22;50527;52.414;13.226;2023-05-27T02:32:04;8.60;94.30
64209;DHT22;50527;52.414;13.226;2023-05-27T02:34:29;8.60;94.30
64209;DHT22;50527;52.414;13.226;2023-05-27T02:36:55;8.70;94.70
64209;DHT22;50527;52.414;13.226;2023-05-27T02:39:21;8.70;94.50
64209;DHT22;50527;52.414;13.226;2023-05-27T02:41:46;8.70;94.50
64209;DHT22;50527;52.414;13.226;2023-05-27T02:44:12;8.60;94.10
64209;DHT22;50527;52.414;13.226;2023-05-27T02:46:37;8.60;93.90
64209;DHT22;50527;52.414;13.226;2023-05-27T02:49:02;8.50;94.60
64209;DHT22;50527;52.414;13.226;2023-05-27T02:51:28;8.50;95.00
64209;DHT22;50527;52.414;13.226;2023-05-27T02:53:54;8.50;94.80
64209;DHT22;50527;52.414;13.226;2023-05-27T02:56:20;8.50;95.10
64209;DHT22;50527;52.414;13.226;2023-05-27T02:58:46;8.50;94.40
64209;DHT22;50527;52.414;13.226;2023-05-27T03:01:12;8.50;94.50
64209;DHT22;50527;52.414;13.226;2023-05-27T03:03:37;8.30;95.50
64209;DHT22;50527;52.414;13.226;2023-05-27T03:06:03;8.40;95.60
64209;DHT22;50527;52.414;13.226;2023-05-27T03:08:28;8.40;94.70
64209;DHT22;50527;52.414;13.226;2023-05-27T03:10:54;8.40;94.60
64209;DHT22;50527;52.414;13.226;2023-05-27T03:13:19;8.40;94.90
64209;DHT22;50527;52.414;13.226;2023-05-27T03:15:45;8.20;95.30
64209;DHT22;50527;52.414;13.226;2023-05-27T03:18:10;8.20;95.60
64209;DHT22;50527;52.414;13.226;2023-05-27T03:20:36;8.30;95.40
64209;DHT22;50527;52.414;13.226;2023-05-27T03:23:01;8.30;95.20
64209;DHT22;50527;52.414;13.226;2023-05-27T03:25:28;8.30;95.10
64209;DHT22;50527;52.414;13.226;2023-05-27T03:27:54;8.40;94.80
64209;DHT22;50527;52.414;13.226;2023-05-27T03:30:19;8.40;94.60
64209;DHT22;50527;52.414;13.226;2023-05-27T03:32:45;8.40;94.50
64209;DHT22;50527;52.414;13.226;2023-05-27T03:35:11;8.40;94.80
64209;DHT22;50527;52.414;13.226;2023-05-27T03:37:36;8.40;95.00
64209;DHT22;50527;52.414;13.226;2023-05-27T03:40:02;8.40;95.20
64209;DHT22;50527;52.414;13.226;2023-05-27T03:42:28;8.40;95.50
64209;DHT22;50527;52.414;13.226;2023-05-27T03:44:54;8.50;95.50
64209;DHT22;50527;52.414;13.226;2023-05-27T03:47:19;8.50;95.60
64209;DHT22;50527;52.414;13.226;2023-05-27T03:49:47;8.50;95.60
64209;DHT22;50527;52.414;13.226;2023-05-27T03:52:12;8.60;95.60
64209;DHT22;50527;52.414;13.226;2023-05-27T03:54:38;8.60;95.10
64209;DHT22;50527;52.414;13.226;2023-05-27T03:57:03;8.60;95.00
64209;DHT22;50527;52.414;13.226;2023-05-27T03:59:29;8.70;95.00
64209;DHT22;50527;52.414;13.226;2023-05-27T04:01:55;8.70;94.90
64209;DHT22;50527;52.414;13.226;2023-05-27T04:04:20;8.70;95.20
64209;DHT22;50527;52.414;13.226;2023-05-27T04:06:46;8.80;95.30
64209;DHT22;50527;52.414;13.226;2023-05-27T04:09:11;8.90;95.40
64209;DHT22;50527;52.414;13.226;2023-05-27T04:11:37;8.90;95.60
64209;DHT22;50527;52.414;13.226;2023-05-27T04:14:02;9.00;95.70
64209;DHT22;50527;52.414;13.226;2023-05-27T04:16:30;9.10;95.30
64209;DHT22;50527;52.414;13.226;2023-05-27T04:18:56;9.10;95.40
64209;DHT22;50527;52.414;13.226;2023-05-27T04:21:22;9.20;95.50
64209;DHT22;50527;52.414;13.226;2023-05-27T04:23:47;9.30;95.80
64209;DHT22;50527;52.414;13.226;2023-05-27T04:26:13;9.40;95.60
64209;DHT22;50527;52.414;13.226;2023-05-27T04:28:39;9.50;95.40
64209;DHT22;50527;52.414;13.226;2023-05-27T04:31:06;9.60;95.20
64209;DHT22;50527;52.414;13.226;2023-05-27T04:33:38;9.70;95.50
64209;DHT22;50527;52.414;13.226;2023-05-27T04:36:06;9.80;95.40
64209;DHT22;50527;52.414;13.226;2023-05-27T04:38:31;9.90;95.40
64209;DHT22;50527;52.414;13.226;2023-05-27T04:40:57;10.00;95.60
64209;DHT22;50527;52.414;13.226;2023-05-27T04:43:23;10.20;95.40
64209;DHT22;50527;52.414;13.226;2023-05-27T04:45:51;10.30;95.50
64209;DHT22;50527;52.414;13.226;2023-05-27T04:48:17;10.40;95.50
64209;DHT22;50527;52.414;13.226;2023-05-27T04:50:42;10.50;95.30
64209;DHT22;50527;52.414;13.226;2023-05-27T04:53:08;10.60;95.20
64209;DHT22;50527;52.414;13.226;2023-05-27T04:55:34;10.60;95.30
64209;DHT22;50527;52.414;13.226;2023-05-27T04:58:00;10.70;95.20
64209;DHT22;50527;52.414;13.226;2023-05-27T05:00:29;10.70;95.40
64209;DHT22;50527;52.414;13.226;2023-05-27T05:03:05;10.80;95.00
64209;DHT22;50527;52.414;13.226;2023-05-27T05:05:32;10.90;94.80
64209;DHT22;50527;52.414;13.226;2023-05-27T05:07:58;10.90;94.70
64209;DHT22;50527;52.414;13.226;2023-05-27T05:10:23;11.00;95.00
64209;DHT22;50527;52.414;13.226;2023-05-27T05:12:49;11.10;94.50
64209;DHT22;50527;52.414;13.226;2023-05-27T05:15:14;11.10;94.00
64209;DHT22;50527;52.414;13.226;2023-05-27T05:17:40;11.20;93.80
64209;DHT22;50527;52.414;13.226;2023-05-27T05:20:06;11.30;94.00
64209;DHT22;50527;52.414;13.226;2023-05-27T05:22:31;11.40;94.20
64209;DHT22;50527;52.414;13.226;2023-05-27T05:24:57;11.50;93.70
64209;DHT22;50527;52.414;13.226;2023-05-27T05:27:24;11.60;93.90
64209;DHT22;50527;52.414;13.226;2023-05-27T05:29:50;11.70;93.30
64209;DHT22;50527;52.414;13.226;2023-05-27T05:32:15;11.70;93.50
64209;DHT22;50527;52.414;13.226;2023-05-27T05:34:41;11.80;93.00
64209;DHT22;50527;52.414;13.226;2023-05-27T05:37:06;11.90;92.30
64209;DHT22;50527;52.414;13.226;2023-05-27T05:39:32;12.10;91.30
64209;DHT22;50527;52.414;13.226;2023-05-27T05:41:58;12.20;90.50
64209;DHT22;50527;52.414;13.226;2023-05-27T05:44:24;12.40;90.10
64209;DHT22;50527;52.414;13.226;2023-05-27T05:46:51;12.50;89.50
64209;DHT22;50527;52.414;13.226;2023-05-27T05:49:18;12.60;88.30
64209;DHT22;50527;52.414;13.226;2023-05-27T05:51:43;12.80;87.70
64209;DHT22;50527;52.414;13.226;2023-05-27T05:54:09;12.90;86.60
64209;DHT22;50527;52.414;13.226;2023-05-27T05:56:34;12.90;86.30
64209;DHT22;50527;52.414;13.226;2023-05-27T05:59:00;12.90;88.20
64209;DHT22;50527;52.414;13.226;2023-05-27T06:01:26;13.10;85.10
64209;DHT22;50527;52.414;13.226;2023-05-27T06:03:54;13.20;83.70
64209;DHT22;50527;52.414;13.226;2023-05-27T06:06:21;13.30;82.40
64209;DHT22;50527;52.414;13.226;2023-05-27T06:08:47;13.40;82.20
64209;DHT22;50527;52.414;13.226;2023-05-27T06:11:12;13.50;81.90
64209;DHT22;50527;52.414;13.226;2023-05-27T06:13:38;13.60;80.80
64209;DHT22;50527;52.414;13.226;2023-05-27T06:16:04;13.70;79.70
64209;DHT22;50527;52.414;13.226;2023-05-27T06:18:29;13.80;77.80
64209;DHT22;50527;52.414;13.226;2023-05-27T06:20:55;13.90;77.00
64209;DHT22;50527;52.414;13.226;2023-05-27T06:23:20;13.80;77.70
64209;DHT22;50527;52.414;13.226;2023-05-27T06:25:46;13.90;78.60
64209;DHT22;50527;52.414;13.226;2023-05-27T06:28:11;14.00;72.60
64209;DHT22;50527;52.414;13.226;2023-05-27T06:30:37;14.20;70.70
64209;DHT22;50527;52.414;13.226;2023-05-27T06:33:03;14.50;72.80
64209;DHT22;50527;52.414;13.226;2023-05-27T06:35:29;15.30;67.40
64209;DHT22;50527;52.414;13.226;2023-05-27T06:37:54;15.20;66.00
64209;DHT22;50527;52.414;13.226;2023-05-27T06:40:20;15.20;65.80
64209;DHT22;50527;52.414;13.226;2023-05-27T06:42:45;15.30;64.70
64209;DHT22;50527;52.414;13.226;2023-05-27T06:45:11;15.40;63.90
64209;DHT22;50527;52.414;13.226;2023-05-27T06:47:36;15.40;64.70
64209;DHT22;50527;52.414;13.226;2023-05-27T06:50:02;15.40;62.30
64209;DHT22;50527;52.414;13.226;2023-05-27T06:52:27;15.40;62.70
64209;DHT22;50527;52.414;13.226;2023-05-27T06:54:53;15.50;61.40
64209;DHT22;50527;52.414;13.226;2023-05-27T06:57:18;15.50;60.80
64209;DHT22;50527;52.414;13.226;2023-05-27T06:59:44;17.40;56.00
64209;DHT22;50527;52.414;13.226;2023-05-27T07:02:10;20.40;48.70
64209;DHT22;50527;52.414;13.226;2023-05-27T07:04:35;22.50;44.50
64209;DHT22;50527;52.414;13.226;2023-05-27T07:07:02;24.80;41.10
64209;DHT22;50527;52.414;13.226;2023-05-27T07:09:28;25.50;39.40
64209;DHT22;50527;52.414;13.226;2023-05-27T07:11:53;24.80;38.50
64209;DHT22;50527;52.414;13.226;2023-05-27T07:14:19;24.20;39.10
64209;DHT22;50527;52.414;13.226;2023-05-27T07:16:44;22.50;40.40
64209;DHT22;50527;52.414;13.226;2023-05-27T07:19:10;21.00;41.20
64209;DHT22;50527;52.414;13.226;2023-05-27T07:21:35;20.30;39.00
64209;DHT22;50527;52.414;13.226;2023-05-27T07:24:02;20.20;40.30
64209;DHT22;50527;52.414;13.226;2023-05-27T07:26:31;20.00;40.50
64209;DHT22;50527;52.414;13.226;2023-05-27T07:28:58;19.80;40.60
64209;DHT22;50527;52.414;13.226;2023-05-27T07:31:24;19.90;40.20
64209;DHT22;50527;52.414;13.226;2023-05-27T07:33:50;19.90;41.00
64209;DHT22;50527;52.414;13.226;2023-05-27T07:36:15;19.40;42.40
64209;DHT22;50527;52.414;13.226;2023-05-27T07:38:41;19.10;41.20
64209;DHT22;50527;52.414;13.226;2023-05-27T07:41:06;18.60;39.90
64209;DHT22;50527;52.414;13.226;2023-05-27T07:46:00;18.50;42.00
64209;DHT22;50527;52.414;13.226;2023-05-27T07:48:27;19.00;42.00
64209;DHT22;50527;52.414;13.226;2023-05-27T07:50:52;19.80;39.50
64209;DHT22;50527;52.414;13.226;2023-05-27T07:53:18;19.80;39.60
64209;DHT22;50527;52.414;13.226;2023-05-27T07:55:43;21.40;38.70
64209;DHT22;50527;52.414;13.226;2023-05-27T07:58:09;22.10;35.60
64209;DHT22;50527;52.414;13.226;2023-05-27T08:00:34;21.60;35.50
64209;DHT22;50527;52.414;13.226;2023-05-27T08:03:00;21.30;35.80
64209;DHT22;50527;52.414;13.226;2023-05-27T08:05:25;21.50;34.70
64209;DHT22;50527;52.414;13.226;2023-05-27T08:07:51;21.60;35.60
64209;DHT22;50527;52.414;13.226;2023-05-27T08:10:16;21.60;35.70
64209;DHT22;50527;52.414;13.226;2023-05-27T08:12:42;21.90;36.00
64209;DHT22;50527;52.414;13.226;2023-05-27T08:15:07;22.90;34.80
64209;DHT22;50527;52.414;13.226;2023-05-27T08:17:33;22.60;34.50
64209;DHT22;50527;52.414;13.226;2023-05-27T08:19:58;22.00;34.20
64209;DHT22;50527;52.414;13.226;2023-05-27T08:22:24;21.90;34.50
64209;DHT22;50527;52.414;13.226;2023-05-27T08:24:49;22.70;33.50
64209;DHT22;50527;52.414;13.226;2023-05-27T08:27:15;22.70;33.80
64209;DHT22;50527;52.414;13.226;2023-05-27T08:29:42;22.40;33.50
64209;DHT22;50527;52.414;13.226;2023-05-27T08:32:07;22.00;33.10
64209;DHT22;50527;52.414;13.226;2023-05-27T08:34:33;21.80;33.30
64209;DHT22;50527;52.414;13.226;2023-05-27T08:36:59;21.40;33.90
64209;DHT22;50527;52.414;13.226;2023-05-27T08:39:25;21.30;33.40
64209;DHT22;50527;52.414;13.226;2023-05-27T08:41:53;21.60;33.50
64209;DHT22;50527;52.414;13.226;2023-05-27T08:44:21;20.80;33.40
64209;DHT22;50527;52.414;13.226;2023-05-27T08:46:48;20.70;35.10
64209;DHT22;50527;52.414;13.226;2023-05-27T08:49:14;20.80;34.70
64209;DHT22;50527;52.414;13.226;2023-05-27T08:51:40;20.50;35.20
64209;DHT22;50527;52.414;13.226;2023-05-27T08:54:08;20.70;34.50
64209;DHT22;50527;52.414;13.226;2023-05-27T08:56:35;20.80;33.00
64209;DHT22;50527;52.414;13.226;2023-05-27T08:59:01;20.30;33.40
64209;DHT22;50527;52.414;13.226;2023-05-27T09:01:27;20.40;33.80
64209;DHT22;50527;52.414;13.226;2023-05-27T09:03:54;20.50;34.40
64209;DHT22;50527;52.414;13.226;2023-05-27T09:06:20;20.50;34.80
64209;DHT22;50527;52.414;13.226;2023-05-27T09:08:45;20.60;33.80
64209;DHT22;50527;52.414;13.226;2023-05-27T09:11:22;20.60;34.10
64209;DHT22;50527;52.414;13.226;2023-05-27T09:13:48;20.50;33.50
64209;DHT22;50527;52.414;13.226;2023-05-27T09:16:14;20.50;34.40
64209;DHT22;50527;52.414;13.226;2023-05-27T09:18:41;20.70;34.00
64209;DHT22;50527;52.414;13.226;2023-05-27T09:21:07;21.00;32.90
64209;DHT22;50527;52.414;13.226;2023-05-27T09:23:39;21.20;33.50
64209;DHT22;50527;52.414;13.226;2023-05-27T09:26:09;21.40;32.80
64209;DHT22;50527;52.414;13.226;2023-05-27T09:28:36;21.60;33.00
64209;DHT22;50527;52.414;13.226;2023-05-27T09:31:04;21.50;32.70
64209;DHT22;50527;52.414;13.226;2023-05-27T09:33:31;22.40;32.10
64209;DHT22;50527;52.414;13.226;2023-05-27T09:35:58;23.00;31.40
64209;DHT22;50527;52.414;13.226;2023-05-27T09:38:24;22.90;30.60
64209;DHT22;50527;52.414;13.226;2023-05-27T09:40:50;23.20;30.80
64209;DHT22;50527;52.414;13.226;2023-05-27T09:43:15;23.50;30.00
64209;DHT22;50527;52.414;13.226;2023-05-27T09:45:44;23.40;30.00
64209;DHT22;50527;52.414;13.226;2023-05-27T09:48:12;23.30;29.90
64209;DHT22;50527;52.414;13.226;2023-05-27T09:50:38;24.00;29.60
64209;DHT22;50527;52.414;13.226;2023-05-27T09:53:05;24.60;29.60
64209;DHT22;50527;52.414;13.226;2023-05-27T09:55:31;25.00;29.60
64209;DHT22;50527;52.414;13.226;2023-05-27T09:57:57;25.30;29.30
64209;DHT22;50527;52.414;13.226;2023-05-27T10:00:23;25.70;28.70
64209;DHT22;50527;52.414;13.226;2023-05-27T10:02:49;25.90;29.00
64209;DHT22;50527;52.414;13.226;2023-05-27T10:05:16;26.20;28.90
64209;DHT22;50527;52.414;13.226;2023-05-27T10:07:43;26.40;28.90
64209;DHT22;50527;52.414;13.226;2023-05-27T10:10:17;26.70;28.80
64209;DHT22;50527;52.414;13.226;2023-05-27T10:12:45;26.60;28.40
64209;DHT22;50527;52.414;13.226;2023-05-27T10:15:24;28.00;28.20
64209;DHT22;50527;52.414;13.226;2023-05-27T10:17:54;29.10;28.20
64209;DHT22;50527;52.414;13.226;2023-05-27T10:20:36;30.40;26.90
64209;DHT22;50527;52.414;13.226;2023-05-27T10:23:32;30.50;26.90
64209;DHT22;50527;52.414;13.226;2023-05-27T10:26:07;29.80;27.00
64209;DHT22;50527;52.414;13.226;2023-05-27T10:28:37;27.90;27.40
64209;DHT22;50527;52.414;13.226;2023-05-27T10:31:30;26.90;28.20
64209;DHT22;50527;52.414;13.226;2023-05-27T10:33:57;25.60;28.60
64209;DHT22;50527;52.414;13.226;2023-05-27T10:36:25;24.50;29.80
64209;DHT22;50527;52.414;13.226;2023-05-27T10:39:15;23.70;30.40
64209;DHT22;50527;52.414;13.226;2023-05-27T10:41:52;23.30;30.00
64209;DHT22;50527;52.414;13.226;2023-05-27T10:44:33;23.10;31.00
64209;DHT22;50527;52.414;13.226;2023-05-27T10:47:19;22.80;32.30
64209;DHT22;50527;52.414;13.226;2023-05-27T10:49:53;22.70;31.90
64209;DHT22;50527;52.414;13.226;2023-05-27T10:52:23;22.70;31.60
64209;DHT22;50527;52.414;13.226;2023-05-27T10:54:51;22.50;31.60
64209;DHT22;50527;52.414;13.226;2023-05-27T10:57:19;22.30;31.70
64209;DHT22;50527;52.414;13.226;2023-05-27T10:59:52;22.00;32.40
64209;DHT22;50527;52.414;13.226;2023-05-27T11:02:19;22.20;33.20
64209;DHT22;50527;52.414;13.226;2023-05-27T11:04:45;22.00;31.50
64209;DHT22;50527;52.414;13.226;2023-05-27T11:07:13;22.00;31.80
64209;DHT22;50527;52.414;13.226;2023-05-27T11:09:53;21.90;31.30
64209;DHT22;50527;52.414;13.226;2023-05-27T11:12:23;21.90;33.00
64209;DHT22;50527;52.414;13.226;2023-05-27T11:14:51;22.20;31.70
64209;DHT22;50527;52.414;13.226;2023-05-27T11:17:17;22.20;31.10
64209;DHT22;50527;52.414;13.226;2023-05-27T11:19:43;22.40;31.50
64209;DHT22;50527;52.414;13.226;2023-05-27T11:22:11;22.20;30.80
64209;DHT22;50527;52.414;13.226;2023-05-27T11:24:37;22.40;30.40
64209;DHT22;50527;52.414;13.226;2023-05-27T11:27:10;22.20;30.90
64209;DHT22;50527;52.414;13.226;2023-05-27T11:29:37;22.30;32.20
64209;DHT22;50527;52.414;13.226;2023-05-27T11:32:04;22.20;31.10
64209;DHT22;50527;52.414;13.226;2023-05-27T11:34:33;22.00;32.10
64209;DHT22;50527;52.414;13.226;2023-05-27T11:37:01;22.10;31.50
64209;DHT22;50527;52.414;13.226;2023-05-27T11:39:29;22.10;31.50
64209;DHT22;50527;52.414;13.226;2023-05-27T11:41:55;22.20;31.40
64209;DHT22;50527;52.414;13.226;2023-05-27T11:44:22;22.10;31.80
64209;DHT22;50527;52.414;13.226;2023-05-27T11:46:49;22.10;30.50
64209;DHT22;50527;52.414;13.226;2023-05-27T11:49:17;21.80;31.80
64209;DHT22;50527;52.414;13.226;2023-05-27T11:51:47;22.00;32.20
64209;DHT22;50527;52.414;13.226;2023-05-27T11:54:27;22.10;30.60
64209;DHT22;50527;52.414;13.226;2023-05-27T11:56:54;22.00;31.80
64209;DHT22;50527;52.414;13.226;2023-05-27T11:59:21;21.80;31.20
64209;DHT22;50527;52.414;13.226;2023-05-27T12:01:47;21.50;31.20
64209;DHT22;50527;52.414;13.226;2023-05-27T12:04:13;21.20;30.90
64209;DHT22;50527;52.414;13.226;2023-05-27T12:06:39;21.40;32.10
64209;DHT22;50527;52.414;13.226;2023-05-27T12:09:05;21.70;32.60
64209;DHT22;50527;52.414;13.226;2023-05-27T12:11:32;21.50;31.10
64209;DHT22;50527;52.414;13.226;2023-05-27T12:13:57;21.70;31.50
64209;DHT22;50527;52.414;13.226;2023-05-27T12:16:23;21.80;32.50
64209;DHT22;50527;52.414;13.226;2023-05-27T12:18:48;22.00;31.80
64209;DHT22;50527;52.414;13.226;2023-05-27T12:21:15;21.90;31.20
64209;DHT22;50527;52.414;13.226;2023-05-27T12:23:40;21.80;32.10
64209;DHT22;50527;52.414;13.226;2023-05-27T12:26:06;22.00;32.00
64209;DHT22;50527;52.414;13.226;2023-05-27T12:28:31;22.20;32.30
64209;DHT22;50527;52.414;13.226;2023-05-27T12:30:57;22.30;32.10
64209;DHT22;50527;52.414;13.226;2023-05-27T12:33:23;22.30;30.70
64209;DHT22;50527;52.414;13.226;2023-05-27T12:35:48;22.20;32.10
64209;DHT22;50527;52.414;13.226;2023-05-27T12:38:14;22.00;31.70
64209;DHT22;50527;52.414;13.226;2023-05-27T12:40:40;22.10;31.30
64209;DHT22;50527;52.414;13.226;2023-05-27T12:43:05;22.10;31.60
64209;DHT22;50527;52.414;13.226;2023-05-27T12:45:31;22.30;30.20
64209;DHT22;50527;52.414;13.226;2023-05-27T12:47:57;22.20;31.30
64209;DHT22;50527;52.414;13.226;2023-05-27T12:50:23;22.10;31.30
64209;DHT22;50527;52.414;13.226;2023-05-27T12:52:49;22.10;31.00
64209;DHT22;50527;52.414;13.226;2023-05-27T12:55:17;22.00;31.50
64209;DHT22;50527;52.414;13.226;2023-05-27T12:57:44;22.20;31.20
64209;DHT22;50527;52.414;13.226;2023-05-27T13:00:10;22.20;32.20
64209;DHT22;50527;52.414;13.226;2023-05-27T13:02:37;22.10;31.50
64209;DHT22;50527;52.414;13.226;2023-05-27T13:05:03;22.10;31.50
64209;DHT22;50527;52.414;13.226;2023-05-27T13:07:31;22.20;31.50
64209;DHT22;50527;52.414;13.226;2023-05-27T13:10:01;22.10;31.50
64209;DHT22;50527;52.414;13.226;2023-05-27T13:12:28;22.20;31.80
64209;DHT22;50527;52.414;13.226;2023-05-27T13:14:54;22.40;33.50
64209;DHT22;50527;52.414;13.226;2023-05-27T13:17:19;22.60;31.80
64209;DHT22;50527;52.414;13.226;2023-05-27T13:19:45;22.60;31.70
64209;DHT22;50527;52.414;13.226;2023-05-27T13:22:11;22.60;31.60
64209;DHT22;50527;52.414;13.226;2023-05-27T13:24:37;22.60;31.90
64209;DHT22;50527;52.414;13.226;2023-05-27T13:27:03;22.60;32.50
64209;DHT22;50527;52.414;13.226;2023-05-27T13:29:29;22.20;32.60
64209;DHT22;50527;52.414;13.226;2023-05-27T13:31:55;22.30;32.60
64209;DHT22;50527;52.414;13.226;2023-05-27T13:34:21;22.30;34.20
64209;DHT22;50527;52.414;13.226;2023-05-27T13:36:46;22.30;32.30
64209;DHT22;50527;52.414;13.226;2023-05-27T13:39:12;22.10;33.40
64209;DHT22;50527;52.414;13.226;2023-05-27T13:41:37;22.20;33.50
64209;DHT22;50527;52.414;13.226;2023-05-27T13:44:03;22.10;32.70
64209;DHT22;50527;52.414;13.226;2023-05-27T13:46:29;22.10;32.60
64209;DHT22;50527;52.414;13.226;2023-05-27T13:48:55;21.80;32.90
64209;DHT22;50527;52.414;13.226;2023-05-27T13:51:20;22.00;32.70
64209;DHT22;50527;52.414;13.226;2023-05-27T13:53:47;22.20;33.60
64209;DHT22;50527;52.414;13.226;2023-05-27T13:56:13;22.20;32.30
64209;DHT22;50527;52.414;13.226;2023-05-27T13:58:39;22.10;33.00
64209;DHT22;50527;52.414;13.226;2023-05-27T14:01:04;22.00;32.80
64209;DHT22;50527;52.414;13.226;2023-05-27T14:03:30;22.20;34.30
64209;DHT22;50527;52.414;13.226;2023-05-27T14:05:55;22.30;33.10
64209;DHT22;50527;52.414;13.226;2023-05-27T14:08:21;22.40;32.40
64209;DHT22;50527;52.414;13.226;2023-05-27T14:10:47;22.30;31.70
64209;DHT22;50527;52.414;13.226;2023-05-27T14:13:13;22.10;31.80
64209;DHT22;50527;52.414;13.226;2023-05-27T14:15:39;22.00;32.10
64209;DHT22;50527;52.414;13.226;2023-05-27T14:18:04;22.00;32.70
64209;DHT22;50527;52.414;13.226;2023-05-27T14:20:31;22.00;33.30
64209;DHT22;50527;52.414;13.226;2023-05-27T14:22:56;22.20;32.70
64209;DHT22;50527;52.414;13.226;2023-05-27T14:25:24;22.40;32.70
64209;DHT22;50527;52.414;13.226;2023-05-27T14:27:50;22.50;32.60
64209;DHT22;50527;52.414;13.226;2023-05-27T14:30:15;22.50;31.90
64209;DHT22;50527;52.414;13.226;2023-05-27T14:32:41;22.50;31.80
64209;DHT22;50527;52.414;13.226;2023-05-27T14:35:07;22.40;33.20
64209;DHT22;50527;52.414;13.226;2023-05-27T14:37:33;22.30;32.20
64209;DHT22;50527;52.414;13.226;2023-05-27T14:40:00;22.10;32.30
64209;DHT22;50527;52.414;13.226;2023-05-27T14:42:26;22.00;32.70
64209;DHT22;50527;52.414;13.226;2023-05-27T14:44:51;22.10;33.00
64209;DHT22;50527;52.414;13.226;2023-05-27T14:47:17;22.20;33.40
64209;DHT22;50527;52.414;13.226;2023-05-27T14:49:43;22.30;32.60
64209;DHT22;50527;52.414;13.226;2023-05-27T14:52:09;22.30;32.20
64209;DHT22;50527;52.414;13.226;2023-05-27T14:54:34;22.20;32.70
64209;DHT22;50527;52.414;13.226;2023-05-27T14:56:59;22.20;32.80
64209;DHT22;50527;52.414;13.226;2023-05-27T14:59:25;22.20;34.50
64209;DHT22;50527;52.414;13.226;2023-05-27T15:01:50;22.30;33.20
64209;DHT22;50527;52.414;13.226;2023-05-27T15:04:16;22.20;32.50
64209;DHT22;50527;52.414;13.226;2023-05-27T15:06:42;22.10;32.50
64209;DHT22;50527;52.414;13.226;2023-05-27T15:09:08;22.00;33.00
64209;DHT22;50527;52.414;13.226;2023-05-27T15:11:37;22.00;33.90
64209;DHT22;50527;52.414;13.226;2023-05-27T15:14:03;22.10;34.10
64209;DHT22;50527;52.414;13.226;2023-05-27T15:16:28;22.20;34.30
64209;DHT22;50527;52.414;13.226;2023-05-27T15:18:54;22.40;33.50
64209;DHT22;50527;52.414;13.226;2023-05-27T15:21:21;22.30;32.70